Terminal Aerodrome Forecast
Issued by NWS Charleston, WV

Current Version | Previous Version | Graphics & Text | Print | Product List | Glossary On
Versions: 1 2 3 4 5 6 7 8 9 10 11 12 13 14 15 16 17 18 19 20 21 22 23 24 25 26 27 28 29 30
508
FTUS41 KRLX 222337
TAFHTS
TAF
KHTS 222337Z 2300/2324 05007KT P6SM -RA OVC030
     FM230700 03007KT 5SM -RA OVC015
     FM230900 04008KT 2SM -RA OVC007
     FM231300 04008KT 1SM -RA OVC004
     FM231600 02008G15KT 3SM -RA OVC007
     FM232000 01008G14KT 6SM -RA OVC012=

USA.gov is the U.S. government's official web portal to all federal, state and local government web resources and services.